createdAt,value
2022-12-17T00:02:33.935Z,9.60
2022-12-17T00:05:19.428Z,9.50
2022-12-17T00:08:04.954Z,9.60
2022-12-17T00:10:50.473Z,9.60
2022-12-17T00:13:41.419Z,9.50
2022-12-17T00:16:27.194Z,9.50
2022-12-17T00:19:13.024Z,9.50
2022-12-17T00:21:58.522Z,9.40
2022-12-17T00:24:44.003Z,9.40
2022-12-17T00:27:29.532Z,9.30
2022-12-17T00:30:14.893Z,9.20
2022-12-17T00:33:00.463Z,9.10
2022-12-17T00:35:46.032Z,8.90
2022-12-17T00:38:36.257Z,8.80
2022-12-17T00:41:22.235Z,8.70
2022-12-17T00:44:07.695Z,8.60
2022-12-17T00:46:53.318Z,8.40
2022-12-17T00:49:38.846Z,8.10
2022-12-17T00:52:24.627Z,8.10
2022-12-17T00:55:10.339Z,8.00
2022-12-17T00:57:55.771Z,7.70
2022-12-17T01:00:41.941Z,7.50
2022-12-17T01:03:30.679Z,7.40
2022-12-17T01:06:19.629Z,7.40
2022-12-17T01:09:05.385Z,7.40
2022-12-17T01:11:51.015Z,7.40
2022-12-17T01:14:37.585Z,7.40
2022-12-17T01:17:23.271Z,7.40
2022-12-17T01:20:08.882Z,7.50
2022-12-17T01:22:54.474Z,7.50
2022-12-17T01:25:42.282Z,7.50
2022-12-17T01:28:28.227Z,7.50
2022-12-17T01:31:15.814Z,7.50
2022-12-17T01:34:01.459Z,7.50
2022-12-17T01:36:47.030Z,7.60
2022-12-17T01:39:32.829Z,7.60
2022-12-17T01:42:18.481Z,7.60
2022-12-17T01:45:11.288Z,7.60
2022-12-17T01:47:58.840Z,7.60
2022-12-17T01:50:47.861Z,7.60
2022-12-17T01:53:37.256Z,7.60
2022-12-17T01:56:24.027Z,7.60
2022-12-17T01:59:09.218Z,7.50
2022-12-17T02:01:54.960Z,7.50
2022-12-17T02:04:40.810Z,7.50
2022-12-17T02:07:45.561Z,7.50
2022-12-17T02:10:46.659Z,7.30
2022-12-17T02:13:38.211Z,7.20
2022-12-17T02:16:29.222Z,7.10
2022-12-17T02:19:21.983Z,7.00
2022-12-17T02:22:13.540Z,6.90
2022-12-17T02:25:04.613Z,6.80
2022-12-17T02:27:51.267Z,6.80
2022-12-17T02:30:37.025Z,6.70
2022-12-17T02:33:23.073Z,6.50
2022-12-17T02:36:23.103Z,6.50
2022-12-17T02:39:08.689Z,6.40
2022-12-17T02:42:03.445Z,6.40
2022-12-17T02:44:52.021Z,6.30
2022-12-17T02:47:39.321Z,6.30
2022-12-17T02:50:26.634Z,6.40
2022-12-17T02:53:12.750Z,6.40
2022-12-17T02:55:58.278Z,6.40
2022-12-17T02:58:43.876Z,6.40
2022-12-17T03:01:29.523Z,6.40
2022-12-17T03:04:14.965Z,6.20
2022-12-17T03:07:00.599Z,6.10
2022-12-17T03:09:46.296Z,6.10
2022-12-17T03:12:31.526Z,6.10
2022-12-17T03:15:24.764Z,6.10
2022-12-17T03:18:10.360Z,6.10
2022-12-17T03:20:55.916Z,6.20
2022-12-17T03:23:41.155Z,6.20
2022-12-17T03:26:26.847Z,6.20
2022-12-17T03:29:12.367Z,6.00
2022-12-17T03:31:58.027Z,6.00
2022-12-17T03:34:43.514Z,5.90
2022-12-17T03:37:29.316Z,6.00
2022-12-17T03:40:14.916Z,6.00
2022-12-17T03:43:00.173Z,5.90
2022-12-17T03:45:45.553Z,5.90
2022-12-17T03:48:32.922Z,6.00
2022-12-17T03:51:20.542Z,6.10
2022-12-17T03:54:06.189Z,6.10
2022-12-17T03:56:51.628Z,6.10
2022-12-17T03:59:37.347Z,5.90
2022-12-17T04:02:22.978Z,6.00
2022-12-17T04:05:08.403Z,6.10
2022-12-17T04:07:53.866Z,6.10
2022-12-17T04:10:39.361Z,6.00
2022-12-17T04:13:25.102Z,6.00
2022-12-17T04:16:10.754Z,5.90
2022-12-17T04:18:56.252Z,5.90
2022-12-17T04:21:41.888Z,5.90
2022-12-17T04:24:27.456Z,5.90
2022-12-17T04:27:13.520Z,5.90
2022-12-17T04:29:59.121Z,5.80
2022-12-17T04:32:44.722Z,5.90
2022-12-17T04:35:30.386Z,5.90
2022-12-17T04:38:15.951Z,5.90
2022-12-17T04:41:01.667Z,5.90
2022-12-17T04:43:47.243Z,5.90
2022-12-17T04:46:32.797Z,5.90
2022-12-17T04:49:18.477Z,6.00
2022-12-17T04:52:03.956Z,5.90
2022-12-17T04:54:49.442Z,5.80
2022-12-17T04:57:35.032Z,5.70
2022-12-17T05:00:20.529Z,5.70
2022-12-17T05:03:06.200Z,5.60
2022-12-17T05:05:51.723Z,5.60
2022-12-17T05:08:41.411Z,5.40
2022-12-17T05:11:27.179Z,5.50
2022-12-17T05:14:12.695Z,5.50
2022-12-17T05:16:58.378Z,5.60
2022-12-17T05:19:43.998Z,5.60
2022-12-17T05:22:29.670Z,5.60
2022-12-17T05:25:15.280Z,5.60
2022-12-17T05:28:00.807Z,5.60
2022-12-17T05:30:46.103Z,5.60
2022-12-17T05:33:31.797Z,5.50
2022-12-17T05:36:21.606Z,5.40
2022-12-17T05:39:07.964Z,5.50
2022-12-17T05:41:53.408Z,5.50
2022-12-17T05:44:38.918Z,5.40
2022-12-17T05:47:24.592Z,5.50
2022-12-17T05:50:10.196Z,5.40
2022-12-17T05:52:55.405Z,5.40
2022-12-17T05:55:40.918Z,5.30
2022-12-17T05:58:28.811Z,5.30
2022-12-17T06:01:15.990Z,5.30
2022-12-17T06:04:01.747Z,5.40
2022-12-17T06:06:47.319Z,5.40
2022-12-17T06:09:32.878Z,5.50
2022-12-17T06:12:18.488Z,5.50
2022-12-17T06:15:03.925Z,5.50
2022-12-17T06:17:49.582Z,5.50
2022-12-17T06:20:34.963Z,5.30
2022-12-17T06:23:22.203Z,5.30
2022-12-17T06:26:07.796Z,5.30
2022-12-17T06:28:53.311Z,5.30
2022-12-17T06:31:39.020Z,5.30
2022-12-17T06:34:24.765Z,5.30
2022-12-17T06:37:10.573Z,5.30
2022-12-17T06:39:56.363Z,5.40
2022-12-17T06:42:41.864Z,5.40
2022-12-17T06:45:27.487Z,5.30
2022-12-17T06:48:20.554Z,5.40
2022-12-17T06:51:06.234Z,5.30
2022-12-17T06:53:51.919Z,5.30
2022-12-17T06:56:37.589Z,5.30
2022-12-17T06:59:23.147Z,5.30
2022-12-17T07:02:08.877Z,5.40
2022-12-17T07:04:54.561Z,5.20
2022-12-17T07:07:40.246Z,5.20
2022-12-17T07:10:26.639Z,5.00
2022-12-17T07:13:12.269Z,5.00
2022-12-17T07:15:58.017Z,5.00
2022-12-17T07:18:43.810Z,5.10
2022-12-17T07:21:29.527Z,5.30
2022-12-17T07:24:15.384Z,5.30
2022-12-17T07:27:01.099Z,5.30
2022-12-17T07:29:46.819Z,5.20
2022-12-17T07:32:32.464Z,5.20
2022-12-17T07:35:25.865Z,5.30
2022-12-17T07:38:18.586Z,5.30
2022-12-17T07:41:04.779Z,5.30
2022-12-17T07:43:53.172Z,5.30
2022-12-17T07:46:39.398Z,5.40
2022-12-17T07:49:26.194Z,5.30
2022-12-17T07:52:12.276Z,5.30
2022-12-17T07:54:58.136Z,5.30
2022-12-17T07:57:44.109Z,5.40
2022-12-17T08:00:30.362Z,5.50
2022-12-17T08:03:20.312Z,5.50
2022-12-17T08:06:05.852Z,5.50
2022-12-17T08:08:51.500Z,5.50
2022-12-17T08:11:37.164Z,5.50
2022-12-17T08:14:22.881Z,5.60
2022-12-17T08:17:08.721Z,5.60
2022-12-17T08:19:54.405Z,5.50
2022-12-17T08:22:39.947Z,5.50
2022-12-17T08:25:25.992Z,5.50
2022-12-17T08:28:48.919Z,5.50
2022-12-17T08:31:24.144Z,5.50
2022-12-17T08:34:09.782Z,5.50
2022-12-17T08:36:55.455Z,5.60
2022-12-17T08:39:40.927Z,5.60
2022-12-17T08:42:26.571Z,5.60
2022-12-17T08:45:12.315Z,5.60
2022-12-17T08:48:03.459Z,5.60
2022-12-17T08:50:49.681Z,5.60
2022-12-17T08:53:35.447Z,5.60
2022-12-17T08:56:20.992Z,5.50
2022-12-17T08:59:06.672Z,5.50
2022-12-17T09:01:52.367Z,5.40
2022-12-17T09:04:37.887Z,5.40
2022-12-17T09:07:23.385Z,5.50
2022-12-17T09:10:09.051Z,5.50
2022-12-17T09:12:55.928Z,5.30
2022-12-17T09:15:43.821Z,5.20
2022-12-17T09:18:29.303Z,5.30
2022-12-17T09:21:15.192Z,5.40
2022-12-17T09:24:20.359Z,5.40
2022-12-17T09:27:05.801Z,5.30
2022-12-17T09:29:51.084Z,5.40
2022-12-17T09:32:36.873Z,5.30
2022-12-17T09:35:22.340Z,5.40
2022-12-17T09:38:14.361Z,5.40
2022-12-17T09:41:04.557Z,5.40
2022-12-17T09:43:55.315Z,5.40
2022-12-17T09:47:03.351Z,5.30
2022-12-17T09:49:49.137Z,5.20
2022-12-17T09:52:44.190Z,5.20
2022-12-17T09:56:02.602Z,5.30
2022-12-17T09:58:49.604Z,5.40
2022-12-17T10:01:57.044Z,5.50
2022-12-17T10:04:53.598Z,5.60
2022-12-17T10:07:43.336Z,5.70
2022-12-17T10:10:39.231Z,5.70
2022-12-17T10:13:35.426Z,5.70
2022-12-17T10:16:21.944Z,5.70
2022-12-17T10:19:08.939Z,5.50
2022-12-17T10:21:57.161Z,5.50
2022-12-17T10:24:42.769Z,5.40
2022-12-17T10:27:36.351Z,5.40
2022-12-17T10:30:21.960Z,5.40
2022-12-17T10:33:14.879Z,5.40
2022-12-17T10:36:00.418Z,5.40
2022-12-17T10:38:48.965Z,5.40
2022-12-17T10:41:46.189Z,5.40
2022-12-17T10:44:49.165Z,5.50
2022-12-17T10:47:40.426Z,5.60
2022-12-17T10:50:32.371Z,5.60
2022-12-17T10:53:19.199Z,5.70
2022-12-17T10:56:14.837Z,5.70
2022-12-17T10:59:12.774Z,5.60
2022-12-17T11:02:19.502Z,5.60
2022-12-17T11:05:12.453Z,5.40
2022-12-17T11:08:01.716Z,5.30
2022-12-17T11:10:50.890Z,5.30
2022-12-17T11:13:41.723Z,5.30
2022-12-17T11:16:40.043Z,5.30
2022-12-17T11:19:28.430Z,5.30
2022-12-17T11:22:18.916Z,5.30
2022-12-17T11:25:31.674Z,5.20
2022-12-17T11:28:31.843Z,5.20
2022-12-17T11:31:33.626Z,5.00
2022-12-17T11:34:30.819Z,4.90
2022-12-17T11:37:29.626Z,4.80
2022-12-17T11:40:17.664Z,4.70
2022-12-17T11:43:12.235Z,4.70
2022-12-17T11:46:20.733Z,4.70
2022-12-17T11:49:25.145Z,4.70
2022-12-17T11:52:28.055Z,4.70
2022-12-17T11:55:31.897Z,4.90
2022-12-17T11:58:23.030Z,5.00
2022-12-17T12:01:36.324Z,5.10
2022-12-17T12:04:32.535Z,5.30
2022-12-17T12:07:26.750Z,5.60
2022-12-17T12:10:23.130Z,5.50
2022-12-17T12:13:44.180Z,5.60
2022-12-17T12:16:45.068Z,5.60
2022-12-17T12:19:48.628Z,5.50
2022-12-17T12:23:03.109Z,5.50
2022-12-17T12:25:57.771Z,5.40
2022-12-17T12:28:52.577Z,5.20
2022-12-17T12:31:38.324Z,5.30
2022-12-17T12:34:30.051Z,5.30
2022-12-17T12:37:20.719Z,5.20
2022-12-17T12:40:23.662Z,4.90
2022-12-17T12:43:30.111Z,4.90
2022-12-17T12:46:33.449Z,4.70
2022-12-17T12:49:37.870Z,4.60
2022-12-17T12:52:30.368Z,4.40
2022-12-17T12:55:16.493Z,4.30
2022-12-17T12:58:44.337Z,4.20
2022-12-17T13:01:31.166Z,4.20
2022-12-17T13:04:19.379Z,4.30
2022-12-17T13:06:54.316Z,4.30
2022-12-17T13:09:33.967Z,4.30
2022-12-17T13:12:05.547Z,4.40
2022-12-17T13:14:56.590Z,4.70
2022-12-17T13:17:32.633Z,4.70
2022-12-17T13:20:20.548Z,4.80
2022-12-17T13:23:11.975Z,4.90
2022-12-17T13:25:39.073Z,5.10
2022-12-17T13:28:06.367Z,5.10
2022-12-17T13:30:36.359Z,5.20
2022-12-17T13:33:21.793Z,5.30
2022-12-17T13:36:18.871Z,5.30
2022-12-17T13:39:10.331Z,5.30
2022-12-17T13:41:38.892Z,5.40
2022-12-17T13:44:20.441Z,5.40
2022-12-17T13:46:50.011Z,5.50
2022-12-17T13:49:25.963Z,5.50
2022-12-17T13:52:09.617Z,5.50
2022-12-17T13:54:38.618Z,5.50
2022-12-17T13:57:25.420Z,5.50
2022-12-17T13:59:57.819Z,5.50
2022-12-17T14:02:35.412Z,5.50
2022-12-17T14:05:10.560Z,5.50
2022-12-17T14:07:39.590Z,5.50
2022-12-17T14:10:15.804Z,5.50
2022-12-17T14:12:43.479Z,5.50
2022-12-17T14:15:18.114Z,5.50
2022-12-17T14:17:47.621Z,5.60
2022-12-17T14:20:27.039Z,5.60
2022-12-17T14:23:00.816Z,5.60
2022-12-17T14:25:35.534Z,5.60
2022-12-17T14:28:20.642Z,5.60
2022-12-17T14:31:24.424Z,5.60
2022-12-17T14:33:37.961Z,5.40
2022-12-17T14:36:17.571Z,5.40
2022-12-17T14:39:03.256Z,5.30
2022-12-17T14:41:56.581Z,5.30
2022-12-17T14:44:29.903Z,5.30
2022-12-17T14:47:12.664Z,5.50
2022-12-17T14:50:08.083Z,5.60
2022-12-17T14:52:55.294Z,5.40
2022-12-17T14:55:34.348Z,5.30
2022-12-17T14:58:13.238Z,5.20
2022-12-17T15:00:52.853Z,5.20
2022-12-17T15:03:21.844Z,5.00
2022-12-17T15:06:03.588Z,5.00
2022-12-17T15:08:34.293Z,5.00
2022-12-17T15:11:02.317Z,5.00
2022-12-17T15:13:29.336Z,5.00
2022-12-17T15:15:56.293Z,5.00
2022-12-17T15:18:24.908Z,5.00
2022-12-17T15:20:53.421Z,5.00
2022-12-17T15:23:23.300Z,5.00
2022-12-17T15:25:52.426Z,5.00
2022-12-17T15:28:20.828Z,5.00
2022-12-17T15:30:49.304Z,4.90
2022-12-17T15:33:16.895Z,4.90
2022-12-17T15:35:44.253Z,5.10
2022-12-17T15:38:12.568Z,5.20
2022-12-17T15:40:40.089Z,5.10
2022-12-17T15:43:12.193Z,5.10
2022-12-17T15:45:50.743Z,5.00
2022-12-17T15:48:20.192Z,5.00
2022-12-17T15:50:48.388Z,5.00
2022-12-17T15:53:15.910Z,5.00
2022-12-17T15:55:42.851Z,4.90
2022-12-17T15:58:14.063Z,4.80
2022-12-17T16:00:41.060Z,4.80
2022-12-17T16:03:08.141Z,4.70
2022-12-17T16:05:35.358Z,4.70
2022-12-17T16:08:03.187Z,4.80
2022-12-17T16:10:30.448Z,4.80
2022-12-17T16:12:57.486Z,4.70
2022-12-17T16:15:24.752Z,4.80
2022-12-17T16:17:51.764Z,4.70
2022-12-17T16:20:19.965Z,4.60
2022-12-17T16:22:47.034Z,4.70
2022-12-17T16:25:14.224Z,4.60
2022-12-17T16:27:41.311Z,4.70
2022-12-17T16:30:09.734Z,4.60
2022-12-17T16:32:37.019Z,4.60
2022-12-17T16:35:05.299Z,4.60
2022-12-17T16:37:32.730Z,4.60
2022-12-17T16:40:00.438Z,4.70
2022-12-17T16:42:28.181Z,4.70
2022-12-17T16:44:55.270Z,4.70
2022-12-17T16:47:22.330Z,4.70
2022-12-17T16:49:50.739Z,4.70
2022-12-17T16:52:18.010Z,4.70
2022-12-17T16:54:45.182Z,5.00
2022-12-17T16:57:12.179Z,5.00
2022-12-17T16:59:39.111Z,4.90
2022-12-17T17:02:09.533Z,4.80
2022-12-17T17:04:36.739Z,4.80
2022-12-17T17:07:03.800Z,4.90
2022-12-17T17:09:30.840Z,4.80
2022-12-17T17:11:59.239Z,4.80
2022-12-17T17:14:26.931Z,4.80
2022-12-17T17:16:54.120Z,4.70
2022-12-17T17:19:21.119Z,4.70
2022-12-17T17:21:54.856Z,4.60
2022-12-17T17:24:24.372Z,4.50
2022-12-17T17:26:52.484Z,4.40
2022-12-17T17:29:19.770Z,4.50
2022-12-17T17:34:34.001Z,4.40
2022-12-17T17:37:01.064Z,4.40
2022-12-17T17:39:27.966Z,4.40
2022-12-17T17:41:54.856Z,4.40
2022-12-17T17:44:21.813Z,4.40
2022-12-17T17:46:48.882Z,4.40
2022-12-17T17:49:16.382Z,4.40
2022-12-17T17:54:31.640Z,4.40
2022-12-17T17:56:58.780Z,4.40
2022-12-17T17:59:32.869Z,4.30
2022-12-17T18:02:02.152Z,4.40
2022-12-17T18:04:29.827Z,4.40
2022-12-17T18:09:43.848Z,4.50
2022-12-17T18:12:29.215Z,4.50
2022-12-17T18:17:44.131Z,4.50
2022-12-17T18:20:11.356Z,4.40
2022-12-17T18:22:38.493Z,4.50
2022-12-17T18:25:05.657Z,4.40
2022-12-17T18:27:32.878Z,4.40
2022-12-17T18:29:59.938Z,4.60
2022-12-17T18:32:26.894Z,4.60
2022-12-17T18:34:53.948Z,4.60
2022-12-17T18:37:20.949Z,4.60
2022-12-17T18:39:49.092Z,4.60
2022-12-17T18:42:34.867Z,4.60
2022-12-17T18:45:02.019Z,4.60
2022-12-17T18:47:29.027Z,4.50
2022-12-17T18:49:56.066Z,4.40
2022-12-17T18:52:24.611Z,4.40
2022-12-17T18:54:51.670Z,4.40
2022-12-17T18:57:18.706Z,4.30
2022-12-17T18:59:45.816Z,4.30
2022-12-17T19:02:14.263Z,4.30
2022-12-17T19:04:41.860Z,4.30
2022-12-17T19:07:08.849Z,4.50
2022-12-17T19:09:36.575Z,4.60
2022-12-17T19:12:08.505Z,4.70
2022-12-17T19:14:36.681Z,4.70
2022-12-17T19:17:05.203Z,4.70
2022-12-17T19:19:33.045Z,4.70
2022-12-17T19:22:00.566Z,4.60
2022-12-17T19:24:27.877Z,4.60
2022-12-17T19:26:55.083Z,4.60
2022-12-17T19:29:22.199Z,4.60
2022-12-17T19:31:49.779Z,4.50
2022-12-17T19:34:19.665Z,4.50
2022-12-17T19:36:47.551Z,4.50
2022-12-17T19:39:17.482Z,4.50
2022-12-17T19:41:45.006Z,4.50
2022-12-17T19:44:14.858Z,4.60
2022-12-17T19:46:42.612Z,4.60
2022-12-17T19:49:12.707Z,4.50
2022-12-17T19:51:41.383Z,4.50
2022-12-17T19:54:09.396Z,4.60
2022-12-17T19:56:36.897Z,4.60
2022-12-17T19:59:09.715Z,4.60
2022-12-17T20:01:39.771Z,4.60
2022-12-17T20:04:06.927Z,4.60
2022-12-17T20:06:35.254Z,4.70
2022-12-17T20:09:04.612Z,4.80
2022-12-17T20:11:34.842Z,4.90
2022-12-17T20:14:11.749Z,5.00
2022-12-17T20:16:41.196Z,5.10
2022-12-17T20:19:13.563Z,5.20
2022-12-17T20:21:41.324Z,5.20
2022-12-17T20:24:08.716Z,5.30
2022-12-17T20:26:36.948Z,5.40
2022-12-17T20:29:05.513Z,5.40
2022-12-17T20:31:33.492Z,5.30
2022-12-17T20:34:02.167Z,5.20
2022-12-17T20:36:29.174Z,5.20
2022-12-17T20:38:56.525Z,5.10
2022-12-17T20:41:26.288Z,5.00
2022-12-17T20:43:54.785Z,5.00
2022-12-17T20:46:23.281Z,4.90
2022-12-17T20:48:51.301Z,4.60
2022-12-17T20:51:21.530Z,4.50
2022-12-17T20:53:48.630Z,4.50
2022-12-17T20:56:18.294Z,4.40
2022-12-17T20:58:45.840Z,4.40
2022-12-17T21:01:18.819Z,4.30
2022-12-17T21:03:47.142Z,4.30
2022-12-17T21:06:22.865Z,4.30
2022-12-17T21:08:52.201Z,4.30
2022-12-17T21:11:22.220Z,4.40
2022-12-17T21:13:49.288Z,4.50
2022-12-17T21:16:19.479Z,4.60
2022-12-17T21:18:46.687Z,4.70
2022-12-17T21:21:18.001Z,4.80
2022-12-17T21:23:46.890Z,4.80
2022-12-17T21:26:24.025Z,5.00
2022-12-17T21:28:53.286Z,5.10
2022-12-17T21:31:25.430Z,5.10
2022-12-17T21:33:56.056Z,5.20
2022-12-17T21:36:24.385Z,5.20
2022-12-17T21:38:52.561Z,5.30
2022-12-17T21:41:22.695Z,5.20
2022-12-17T21:43:54.564Z,5.20
2022-12-17T21:46:21.676Z,5.20
2022-12-17T21:48:49.215Z,5.20
2022-12-17T21:51:16.687Z,5.20
2022-12-17T21:53:44.043Z,5.20
2022-12-17T21:56:16.481Z,5.10
2022-12-17T21:58:45.302Z,5.00
2022-12-17T22:01:22.213Z,5.10
2022-12-17T22:03:53.647Z,5.10
2022-12-17T22:06:24.074Z,5.20
2022-12-17T22:09:00.298Z,5.20
2022-12-17T22:11:31.643Z,5.20
2022-12-17T22:14:13.777Z,5.10
2022-12-17T22:16:49.670Z,5.20
2022-12-17T22:19:22.893Z,5.30
2022-12-17T22:21:57.826Z,5.40
2022-12-17T22:24:25.650Z,5.40
2022-12-17T22:27:00.337Z,5.40
2022-12-17T22:29:47.031Z,5.40
2022-12-17T22:32:32.682Z,5.40
2022-12-17T22:35:47.619Z,5.50
2022-12-17T22:43:21.629Z,5.40
2022-12-17T22:44:35.541Z,5.40
2022-12-17T22:44:41.156Z,5.30
2022-12-17T22:46:18.567Z,5.20
2022-12-17T22:48:45.750Z,5.10
2022-12-17T22:51:18.682Z,5.10
2022-12-17T22:53:49.786Z,5.20
2022-12-17T22:56:39.573Z,5.30
2022-12-17T22:59:05.563Z,5.40
2022-12-17T23:01:33.575Z,5.50
2022-12-17T23:04:02.987Z,5.50
2022-12-17T23:06:30.307Z,5.60
2022-12-17T23:08:57.668Z,5.60
2022-12-17T23:11:26.722Z,5.60
2022-12-17T23:13:54.431Z,5.60
2022-12-17T23:16:21.832Z,5.40
2022-12-17T23:18:50.142Z,5.40
2022-12-17T23:21:26.743Z,5.50
2022-12-17T23:23:55.723Z,5.40
2022-12-17T23:26:25.840Z,5.40
2022-12-17T23:28:58.681Z,5.40
2022-12-17T23:31:27.884Z,5.30
2022-12-17T23:33:55.029Z,5.20
2022-12-17T23:36:24.289Z,5.10
2022-12-17T23:38:52.475Z,5.00
2022-12-17T23:41:22.807Z,4.90
2022-12-17T23:43:50.408Z,4.90
2022-12-17T23:46:19.168Z,4.80
2022-12-17T23:48:47.502Z,4.80
2022-12-17T23:51:17.321Z,4.70
2022-12-17T23:53:44.486Z,4.70
2022-12-17T23:56:14.918Z,4.60
2022-12-17T23:58:44.096Z,4.70
